createdAt,value
2018-05-26T00:00:00.265Z,99662.63
2018-05-26T00:02:27.828Z,99666.50
2018-05-26T00:04:55.469Z,99662.31
2018-05-26T00:07:23.713Z,99665.28
2018-05-26T00:09:51.426Z,99659.84
2018-05-26T00:12:19.083Z,99671.77
2018-05-26T00:14:46.951Z,99666.84
2018-05-26T00:17:15.615Z,99663.30
2018-05-26T00:19:43.245Z,99657.52
2018-05-26T00:22:10.970Z,99661.23
2018-05-26T00:24:38.614Z,99666.85
2018-05-26T00:27:06.283Z,99659.42
2018-05-26T00:29:34.439Z,99652.14
2018-05-26T00:32:02.016Z,99654.81
2018-05-26T00:34:29.642Z,99640.52
2018-05-26T00:36:57.333Z,99647.66
2018-05-26T00:39:24.987Z,99649.67
2018-05-26T00:41:52.620Z,99649.95
2018-05-26T00:44:20.756Z,99648.39
2018-05-26T00:46:48.356Z,99652.87
2018-05-26T00:49:16.037Z,99647.97
2018-05-26T00:51:44.176Z,99650.86
2018-05-26T00:54:11.778Z,99652.03
2018-05-26T00:56:39.380Z,99651.53
2018-05-26T00:59:07.231Z,99648.02
2018-05-26T01:01:34.894Z,99652.98
2018-05-26T01:04:02.575Z,99654.51
2018-05-26T01:06:30.289Z,99648.75
2018-05-26T01:08:57.902Z,99650.20
2018-05-26T01:11:25.574Z,99657.52
2018-05-26T01:13:53.261Z,99652.98
2018-05-26T01:16:20.857Z,99649.89
2018-05-26T01:18:48.583Z,99650.20
2018-05-26T01:21:16.461Z,99646.75
2018-05-26T01:23:44.057Z,99645.73
2018-05-26T01:26:11.734Z,99641.19
2018-05-26T01:28:39.568Z,99645.77
2018-05-26T01:31:07.265Z,99646.20
2018-05-26T01:33:34.887Z,99649.23
2018-05-26T01:36:02.736Z,99649.36
2018-05-26T01:38:30.392Z,99655.95
2018-05-26T01:40:58.068Z,99652.96
2018-05-26T01:43:25.789Z,99653.76
2018-05-26T01:45:53.410Z,99657.05
2018-05-26T01:48:21.036Z,99657.13
2018-05-26T01:50:48.916Z,99656.98
2018-05-26T01:53:16.576Z,99652.09
2018-05-26T01:55:44.240Z,99656.52
2018-05-26T01:58:12.103Z,99656.70
2018-05-26T02:00:39.733Z,99660.33
2018-05-26T02:03:07.433Z,99656.03
2018-05-26T02:05:35.180Z,99653.79
2018-05-26T02:08:02.752Z,99656.98
2018-05-26T02:10:30.395Z,99663.28
2018-05-26T02:12:58.230Z,99660.33
2018-05-26T02:15:25.919Z,99659.00
2018-05-26T02:17:53.582Z,99662.25
2018-05-26T02:20:21.285Z,99661.89
2018-05-26T02:22:48.903Z,99670.19
2018-05-26T02:25:16.534Z,99667.27
2018-05-26T02:27:44.263Z,99672.25
2018-05-26T02:30:11.901Z,99677.46
2018-05-26T02:32:39.552Z,99673.27
2018-05-26T02:35:07.247Z,99681.63
2018-05-26T02:37:34.872Z,99688.83
2018-05-26T02:40:02.499Z,99694.58
2018-05-26T02:42:30.389Z,99692.70
2018-05-26T02:44:58.026Z,99690.75
2018-05-26T02:47:25.684Z,99690.95
2018-05-26T02:49:53.421Z,99691.68
2018-05-26T02:52:21.034Z,99695.23
2018-05-26T02:54:48.648Z,99695.79
2018-05-26T02:57:16.863Z,99696.33
2018-05-26T02:59:44.457Z,99688.17
2018-05-26T03:02:14.104Z,99702.59
2018-05-26T03:04:47.814Z,99694.38
2018-05-26T03:07:20.925Z,99695.34
2018-05-26T03:09:54.322Z,99695.11
2018-05-26T03:12:27.448Z,99700.77
2018-05-26T03:14:55.040Z,99699.01
2018-05-26T03:20:31.252Z,99698.16
2018-05-26T03:22:58.881Z,99701.57
2018-05-26T03:25:26.517Z,99708.47
2018-05-26T03:27:54.349Z,99702.70
2018-05-26T03:30:22.020Z,99713.45
2018-05-26T03:32:49.707Z,99713.14
2018-05-26T03:35:17.559Z,99711.36
2018-05-26T03:37:45.951Z,99722.04
2018-05-26T03:40:13.589Z,99719.61
2018-05-26T03:42:41.195Z,99715.52
2018-05-26T03:45:09.344Z,99730.37
2018-05-26T03:47:36.933Z,99726.18
2018-05-26T03:50:04.578Z,99724.73
2018-05-26T03:52:32.330Z,99714.03
2018-05-26T03:58:20.488Z,99726.00
2018-05-26T04:00:48.065Z,99727.80
2018-05-26T04:03:15.665Z,99726.45
2018-05-26T04:05:43.518Z,99729.09
2018-05-26T04:08:11.221Z,99736.82
2018-05-26T04:10:38.850Z,99733.60
2018-05-26T04:13:09.689Z,99730.63
2018-05-26T04:15:37.711Z,99733.95
2018-05-26T04:18:05.383Z,99733.33
2018-05-26T04:20:33.046Z,99733.05
2018-05-26T04:23:00.677Z,99737.56
2018-05-26T04:25:28.316Z,99730.18
2018-05-26T04:27:56.001Z,99732.41
2018-05-26T04:30:23.665Z,99731.36
2018-05-26T04:32:51.268Z,99737.11
2018-05-26T04:35:19.156Z,99746.00
2018-05-26T04:37:46.787Z,99736.05
2018-05-26T04:40:14.455Z,99732.29
2018-05-26T04:42:42.280Z,99733.48
2018-05-26T04:45:09.965Z,99743.38
2018-05-26T04:47:37.629Z,99752.27
2018-05-26T04:50:05.346Z,99742.34
2018-05-26T04:52:32.964Z,99742.70
2018-05-26T04:55:00.611Z,99752.91
2018-05-26T04:57:28.734Z,99750.84
2018-05-26T04:59:56.328Z,99743.02
2018-05-26T05:02:23.986Z,99756.42
2018-05-26T05:04:51.874Z,99755.50
2018-05-26T05:07:19.520Z,99738.00
2018-05-26T05:09:47.171Z,99747.16
2018-05-26T05:12:15.010Z,99758.53
2018-05-26T05:14:42.691Z,99759.20
2018-05-26T05:17:11.472Z,99754.07
2018-05-26T05:19:39.089Z,99758.28
2018-05-26T05:22:06.722Z,99763.66
2018-05-26T05:24:34.415Z,99763.17
2018-05-26T05:27:02.257Z,99763.50
2018-05-26T05:29:31.074Z,99765.41
2018-05-26T05:31:58.809Z,99757.80
2018-05-26T05:34:26.889Z,99767.94
2018-05-26T05:36:54.487Z,99768.89
2018-05-26T05:39:22.211Z,99766.23
2018-05-26T05:41:50.015Z,99767.27
2018-05-26T05:44:17.680Z,99772.92
2018-05-26T05:46:45.373Z,99773.69
2018-05-26T05:49:13.032Z,99769.43
2018-05-26T05:51:40.652Z,99769.30
2018-05-26T05:54:08.306Z,99781.77
2018-05-26T05:56:36.028Z,99770.70
2018-05-26T05:59:03.633Z,99769.63
2018-05-26T06:01:31.302Z,99769.20
2018-05-26T06:03:59.467Z,99780.83
2018-05-26T06:06:27.035Z,99775.10
2018-05-26T06:08:54.904Z,99786.34
2018-05-26T06:11:23.095Z,99794.69
2018-05-26T06:13:50.666Z,99797.45
2018-05-26T06:16:18.303Z,99796.92
2018-05-26T06:18:45.975Z,99798.48
2018-05-26T06:21:13.805Z,99800.50
2018-05-26T06:23:41.460Z,99797.89
2018-05-26T06:26:09.176Z,99798.34
2018-05-26T06:28:36.758Z,99794.98
2018-05-26T06:31:04.421Z,99800.52
2018-05-26T06:33:32.621Z,99798.78
2018-05-26T06:36:00.282Z,99795.49
2018-05-26T06:38:27.844Z,99802.87
2018-05-26T06:40:55.606Z,99800.75
2018-05-26T06:43:23.180Z,99796.13
2018-05-26T06:45:50.801Z,99800.24
2018-05-26T06:48:18.501Z,99795.96
2018-05-26T06:50:46.190Z,99790.36
2018-05-26T06:53:13.823Z,99791.65
2018-05-26T06:55:41.466Z,99795.70
2018-05-26T06:58:09.088Z,99791.89
2018-05-26T07:00:36.794Z,99798.42
2018-05-26T07:03:04.636Z,99790.05
2018-05-26T07:05:32.304Z,99796.48
2018-05-26T07:07:59.945Z,99798.51
2018-05-26T07:10:27.639Z,99791.24
2018-05-26T07:12:55.256Z,99794.86
2018-05-26T07:15:22.964Z,99789.41
2018-05-26T07:17:50.627Z,99791.56
2018-05-26T07:20:18.279Z,99791.89
2018-05-26T07:22:45.927Z,99787.72
2018-05-26T07:25:13.671Z,99790.47
2018-05-26T07:27:41.236Z,99790.77
2018-05-26T07:30:08.845Z,99800.87
2018-05-26T07:32:36.718Z,99800.41
2018-05-26T07:35:04.411Z,99796.05
2018-05-26T07:37:32.098Z,99794.29
2018-05-26T07:40:00.213Z,99796.24
2018-05-26T07:42:27.801Z,99796.16
2018-05-26T07:44:55.432Z,99794.63
2018-05-26T07:47:23.301Z,99797.32
2018-05-26T07:49:50.953Z,99794.67
2018-05-26T07:52:18.596Z,99793.45
2018-05-26T07:54:46.457Z,99798.39
2018-05-26T07:57:14.127Z,99795.21
2018-05-26T08:06:25.362Z,99795.74
2018-05-26T08:08:52.961Z,99791.66
2018-05-26T08:11:20.559Z,99789.52
2018-05-26T08:13:48.738Z,99791.16
2018-05-26T08:16:16.320Z,99794.27
2018-05-26T08:18:43.978Z,99799.28
2018-05-26T08:21:12.022Z,99793.23
2018-05-26T08:23:39.665Z,99795.79
2018-05-26T08:26:07.349Z,99797.66
2018-05-26T08:28:35.026Z,99799.17
2018-05-26T08:31:02.665Z,99797.81
2018-05-26T08:33:30.304Z,99793.45
2018-05-26T08:35:58.305Z,99793.19
2018-05-26T08:38:25.890Z,99798.30
2018-05-26T08:40:53.484Z,99795.13
2018-05-26T08:43:21.202Z,99802.09
2018-05-26T08:45:48.793Z,99799.73
2018-05-26T08:48:16.488Z,99795.81
2018-05-26T08:50:44.347Z,99790.57
2018-05-26T08:53:12.016Z,99793.13
2018-05-26T08:55:39.718Z,99787.30
2018-05-26T08:58:07.500Z,99789.05
2018-05-26T09:00:35.191Z,99795.11
2018-05-26T09:03:02.852Z,99786.98
2018-05-26T09:05:30.537Z,99784.66
2018-05-26T09:07:58.154Z,99780.29
2018-05-26T09:10:25.817Z,99780.99
2018-05-26T09:12:53.543Z,99777.00
2018-05-26T09:15:21.126Z,99778.23
2018-05-26T09:17:48.812Z,99778.28
2018-05-26T09:20:16.658Z,99772.34
2018-05-26T09:22:44.295Z,99766.69
2018-05-26T09:25:12.149Z,99766.02
2018-05-26T09:27:39.903Z,99763.33
2018-05-26T09:30:07.502Z,99762.17
2018-05-26T09:32:35.199Z,99760.27
2018-05-26T09:35:02.871Z,99759.10
2018-05-26T09:37:30.615Z,99747.66
2018-05-26T09:39:58.371Z,99742.38
2018-05-26T09:42:26.229Z,99741.39
2018-05-26T09:44:53.868Z,99739.19
2018-05-26T09:47:21.501Z,99739.86
2018-05-26T09:49:49.703Z,99734.05
2018-05-26T09:52:17.358Z,99723.84
2018-05-26T09:54:44.999Z,99724.52
2018-05-26T09:57:13.290Z,99715.11
2018-05-26T09:59:40.885Z,99698.06
2018-05-26T10:02:08.556Z,99702.47
2018-05-26T10:04:36.217Z,99700.95
2018-05-26T10:07:03.833Z,99704.57
2018-05-26T10:09:31.510Z,99700.55
2018-05-26T10:11:59.181Z,99705.77
2018-05-26T10:14:26.824Z,99706.22
2018-05-26T10:16:54.450Z,99701.44
2018-05-26T10:19:22.137Z,99716.09
2018-05-26T10:21:49.759Z,99735.38
2018-05-26T10:24:18.083Z,99805.31
2018-05-26T10:26:46.534Z,99830.05
2018-05-26T10:29:14.247Z,99876.34
2018-05-26T10:31:41.832Z,99876.95
2018-05-26T10:34:09.774Z,99847.74
2018-05-26T10:36:37.432Z,99821.25
2018-05-26T10:39:05.060Z,99807.41
2018-05-26T10:41:32.883Z,99802.25
2018-05-26T10:44:00.552Z,99796.19
2018-05-26T10:46:29.198Z,99807.51
2018-05-26T10:48:56.952Z,99804.20
2018-05-26T10:51:24.559Z,99810.00
2018-05-26T10:53:52.180Z,99808.11
2018-05-26T10:56:19.892Z,99806.41
2018-05-26T10:58:47.571Z,99807.06
2018-05-26T11:01:15.273Z,99810.33
2018-05-26T11:03:43.049Z,99807.48
2018-05-26T11:06:10.708Z,99802.05
2018-05-26T11:08:38.417Z,99798.80
2018-05-26T11:11:06.089Z,99801.16
2018-05-26T11:13:33.683Z,99799.64
2018-05-26T11:16:01.397Z,99789.14
2018-05-26T11:18:29.070Z,99790.44
2018-05-26T11:20:56.665Z,99778.48
2018-05-26T11:23:24.364Z,99780.41
2018-05-26T11:25:52.100Z,99780.06
2018-05-26T11:28:19.851Z,99772.78
2018-05-26T11:30:47.491Z,99769.17
2018-05-26T11:33:15.218Z,99760.90
2018-05-26T11:35:42.841Z,99765.83
2018-05-26T11:38:10.480Z,99765.16
2018-05-26T11:40:38.168Z,99769.41
2018-05-26T11:43:05.819Z,99763.40
2018-05-26T11:45:33.445Z,99759.00
2018-05-26T11:48:01.321Z,99761.85
2018-05-26T11:50:28.993Z,99769.94
2018-05-26T11:52:56.653Z,99763.54
2018-05-26T11:55:24.328Z,99768.22
2018-05-26T11:57:51.945Z,99760.31
2018-05-26T12:00:19.696Z,99758.07
2018-05-26T12:02:47.725Z,99760.20
2018-05-26T12:05:15.348Z,99757.50
2018-05-26T12:07:43.028Z,99756.80
2018-05-26T12:10:10.913Z,99756.48
2018-05-26T12:12:38.549Z,99761.86
2018-05-26T12:15:06.254Z,99761.70
2018-05-26T12:17:34.580Z,99760.73
2018-05-26T12:20:02.160Z,99757.97
2018-05-26T12:22:29.776Z,99755.06
2018-05-26T12:24:57.959Z,99755.51
2018-05-26T12:27:25.561Z,99755.68
2018-05-26T12:29:53.131Z,99752.05
2018-05-26T12:32:20.869Z,99755.02
2018-05-26T12:34:48.439Z,99764.37
2018-05-26T12:37:16.112Z,99755.93
2018-05-26T12:39:43.886Z,99752.40
2018-05-26T12:42:11.472Z,99756.10
2018-05-26T12:44:39.138Z,99752.06
2018-05-26T12:47:06.829Z,99745.80
2018-05-26T12:49:34.431Z,99750.47
2018-05-26T12:52:02.093Z,99748.60
2018-05-26T12:54:29.803Z,99744.31
2018-05-26T12:56:57.392Z,99747.01
2018-05-26T12:59:25.073Z,99751.63
2018-05-26T13:01:52.808Z,99749.92
2018-05-26T13:04:20.394Z,99749.83
2018-05-26T13:06:48.064Z,99754.20
2018-05-26T13:09:15.760Z,99742.14
2018-05-26T13:11:43.456Z,99742.61
2018-05-26T13:14:12.113Z,99735.46
2018-05-26T13:16:39.931Z,99732.25
2018-05-26T13:19:07.552Z,99730.83
2018-05-26T13:21:35.253Z,99723.70
2018-05-26T13:24:03.268Z,99724.28
2018-05-26T13:26:30.956Z,99715.32
2018-05-26T13:28:58.647Z,99724.93
2018-05-26T13:31:26.324Z,99735.19
2018-05-26T13:33:53.963Z,99724.30
2018-05-26T13:36:21.600Z,99718.48
2018-05-26T13:38:49.290Z,99716.24
2018-05-26T13:41:16.967Z,99717.50
2018-05-26T13:43:44.581Z,99717.41
2018-05-26T13:46:12.424Z,99713.48
2018-05-26T13:48:40.082Z,99704.30
2018-05-26T13:51:07.796Z,99702.64
2018-05-26T13:53:35.541Z,99704.59
2018-05-26T13:56:03.157Z,99698.52
2018-05-26T13:58:30.732Z,99695.75
2018-05-26T14:00:58.412Z,99678.52
2018-05-26T14:03:26.061Z,99673.63
2018-05-26T14:05:53.705Z,99678.12
2018-05-26T14:08:21.567Z,99680.14
2018-05-26T14:10:49.291Z,99678.13
2018-05-26T14:13:16.876Z,99674.47
2018-05-26T14:15:44.610Z,99674.90
2018-05-26T14:18:12.232Z,99677.67
2018-05-26T14:20:39.889Z,99676.58
2018-05-26T14:23:08.036Z,99679.61
2018-05-26T14:25:35.648Z,99678.36
2018-05-26T14:28:03.337Z,99673.28
2018-05-26T14:30:30.987Z,99667.63
2018-05-26T14:32:58.580Z,99669.80
2018-05-26T14:35:26.270Z,99668.52
2018-05-26T14:37:53.949Z,99655.66
2018-05-26T14:40:21.567Z,99655.39
2018-05-26T14:42:49.211Z,99655.15
2018-05-26T14:45:16.929Z,99661.39
2018-05-26T14:47:44.573Z,99660.38
2018-05-26T14:50:12.165Z,99655.31
2018-05-26T14:52:40.055Z,99649.97
2018-05-26T14:55:07.692Z,99655.44
2018-05-26T14:57:35.408Z,99648.80
2018-05-26T15:00:03.168Z,99653.27
2018-05-26T15:02:30.904Z,99651.39
2018-05-26T15:04:58.570Z,99658.34
2018-05-26T15:07:26.273Z,99652.74
2018-05-26T15:09:53.848Z,99650.42
2018-05-26T15:12:21.539Z,99647.11
2018-05-26T15:14:49.373Z,99639.12
2018-05-26T15:17:17.034Z,99643.93
2018-05-26T15:19:44.725Z,99641.66
2018-05-26T15:22:12.372Z,99634.92
2018-05-26T15:24:40.184Z,99645.78
2018-05-26T15:27:07.905Z,99641.77
2018-05-26T15:29:35.596Z,99643.15
2018-05-26T15:32:03.209Z,99643.78
2018-05-26T15:34:30.838Z,99638.43
2018-05-26T15:36:58.720Z,99631.39
2018-05-26T15:39:26.406Z,99631.30
2018-05-26T15:41:54.062Z,99636.86
2018-05-26T15:44:21.923Z,99635.89
2018-05-26T15:46:49.504Z,99625.72
2018-05-26T15:49:17.186Z,99625.86
2018-05-26T15:51:45.291Z,99632.78
2018-05-26T15:54:13.140Z,99641.69
2018-05-26T15:56:40.870Z,99639.88
2018-05-26T15:59:08.624Z,99653.12
2018-05-26T16:01:36.192Z,99649.11
2018-05-26T16:04:03.844Z,99656.03
2018-05-26T16:06:31.680Z,99656.12
2018-05-26T16:08:59.368Z,99664.28
2018-05-26T16:11:27.008Z,99665.19
2018-05-26T16:13:54.722Z,99669.80
2018-05-26T16:16:22.312Z,99678.25
2018-05-26T16:18:49.978Z,99686.83
2018-05-26T16:21:17.681Z,99685.59
2018-05-26T16:23:45.293Z,99687.00
2018-05-26T16:26:12.965Z,99683.72
2018-05-26T16:28:40.750Z,99685.79
2018-05-26T16:31:08.345Z,99690.40
2018-05-26T16:33:35.937Z,99696.66
2018-05-26T16:36:03.655Z,99699.11
2018-05-26T16:38:31.248Z,99704.52
2018-05-26T16:40:58.921Z,99707.17
2018-05-26T16:43:26.741Z,99705.89
2018-05-26T16:45:54.460Z,99703.80
2018-05-26T16:48:22.081Z,99703.61
2018-05-26T16:50:50.229Z,99710.80
2018-05-26T16:53:17.880Z,99712.91
2018-05-26T16:55:45.477Z,99720.98
2018-05-26T16:58:13.194Z,99725.83
2018-05-26T17:00:40.843Z,99729.97
2018-05-26T17:03:08.487Z,99736.81
2018-05-26T17:05:36.332Z,99766.75
2018-05-26T17:08:04.019Z,99776.86
2018-05-26T17:10:31.595Z,99782.06
2018-05-26T17:12:59.345Z,99777.48
2018-05-26T17:15:26.951Z,99789.58
2018-05-26T17:17:54.628Z,99800.27
2018-05-26T17:20:22.835Z,99797.68
2018-05-26T17:22:50.560Z,99800.48
2018-05-26T17:25:18.193Z,99796.68
2018-05-26T17:27:46.303Z,99797.16
2018-05-26T17:30:13.952Z,99808.38
2018-05-26T17:32:41.571Z,99821.63
2018-05-26T17:35:09.408Z,99823.13
2018-05-26T17:37:37.114Z,99828.78
2018-05-26T17:40:04.828Z,99834.91
2018-05-26T17:42:32.519Z,99841.77
2018-05-26T17:45:00.091Z,99830.77
2018-05-26T17:47:27.748Z,99840.60
2018-05-26T17:49:55.498Z,99838.09
2018-05-26T17:52:23.059Z,99844.05
2018-05-26T17:54:50.737Z,99840.46
2018-05-26T17:57:18.436Z,99837.22
2018-05-26T17:59:46.098Z,99830.74
2018-05-26T18:02:13.701Z,99834.91
2018-05-26T18:04:41.568Z,99846.54
2018-05-26T18:07:09.235Z,99858.98
2018-05-26T18:09:36.891Z,99857.50
2018-05-26T18:12:04.589Z,99840.33
2018-05-26T18:14:32.188Z,99831.05
2018-05-26T18:16:59.862Z,99836.88
2018-05-26T18:19:27.754Z,99835.53
2018-05-26T18:21:55.396Z,99835.36
2018-05-26T18:24:23.052Z,99841.16
2018-05-26T18:26:50.866Z,99858.30
2018-05-26T18:29:18.592Z,99851.64
2018-05-26T18:31:46.178Z,99846.25
2018-05-26T18:34:14.366Z,99849.58
2018-05-26T18:36:41.975Z,99856.34
2018-05-26T18:39:09.608Z,99856.66
2018-05-26T18:41:37.315Z,99855.77
2018-05-26T18:44:04.960Z,99847.34
2018-05-26T18:46:32.629Z,99843.31
2018-05-26T18:49:00.756Z,99842.44
2018-05-26T18:51:28.351Z,99853.38
2018-05-26T18:53:55.998Z,99849.18
2018-05-26T18:56:23.828Z,99851.64
2018-05-26T18:58:51.540Z,99870.24
2018-05-26T19:01:19.202Z,99868.26
2018-05-26T19:03:46.859Z,99870.08
2018-05-26T19:06:14.497Z,99870.72
2018-05-26T19:08:42.153Z,99873.64
2018-05-26T19:11:09.836Z,99885.64
2018-05-26T19:13:37.473Z,99874.00
2018-05-26T19:16:05.103Z,99885.56
2018-05-26T19:18:32.830Z,99887.24
2018-05-26T19:21:00.462Z,99893.41
2018-05-26T19:23:28.088Z,99900.03
2018-05-26T19:25:55.799Z,99906.44
2018-05-26T19:28:23.393Z,99906.19
2018-05-26T19:30:51.070Z,99910.91
2018-05-26T19:33:19.065Z,99911.53
2018-05-26T19:35:46.654Z,99908.56
2018-05-26T19:38:14.251Z,99912.83
2018-05-26T19:40:41.889Z,99921.49
2018-05-26T19:43:09.507Z,99920.16
2018-05-26T19:45:37.153Z,99925.63
2018-05-26T19:48:05.133Z,99929.74
2018-05-26T19:50:32.787Z,99928.25
2018-05-26T19:53:00.401Z,99929.31
2018-05-26T19:55:28.131Z,99929.53
2018-05-26T19:57:55.773Z,99930.08
2018-05-26T20:00:23.420Z,99926.06
2018-05-26T20:02:51.283Z,99916.34
2018-05-26T20:05:18.947Z,99914.72
2018-05-26T20:07:46.661Z,99908.56
2018-05-26T20:10:14.617Z,99908.21
2018-05-26T20:12:42.208Z,99908.55
2018-05-26T20:15:09.829Z,99905.83
2018-05-26T20:17:37.709Z,99903.99
2018-05-26T20:20:05.428Z,99906.11
2018-05-26T20:22:33.055Z,99904.73
2018-05-26T20:25:01.253Z,99916.17
2018-05-26T20:27:28.844Z,99912.09
2018-05-26T20:29:56.559Z,99913.94
2018-05-26T20:32:24.570Z,99915.34
2018-05-26T20:34:52.246Z,99924.23
2018-05-26T20:37:20.058Z,99924.16
2018-05-26T20:39:48.114Z,99930.36
2018-05-26T20:42:15.716Z,99926.96
2018-05-26T20:44:43.299Z,99932.63
2018-05-26T20:47:11.182Z,99938.45
2018-05-26T20:49:38.828Z,99944.09
2018-05-26T20:52:06.500Z,99947.77
2018-05-26T20:54:34.222Z,99943.13
2018-05-26T20:57:01.819Z,99940.82
2018-05-26T20:59:29.510Z,99940.45
2018-05-26T21:01:57.310Z,99947.30
2018-05-26T21:04:31.045Z,99951.84
2018-05-26T21:06:58.654Z,99951.19
2018-05-26T21:09:26.272Z,99952.98
2018-05-26T21:11:53.931Z,99955.70
2018-05-26T21:14:21.768Z,99962.28
2018-05-26T21:16:49.441Z,99962.25
2018-05-26T21:19:17.137Z,99959.58
2018-05-26T21:21:45.273Z,99960.16
2018-05-26T21:24:12.859Z,99962.33
2018-05-26T21:26:40.489Z,99969.03
2018-05-26T21:29:08.498Z,99974.70
2018-05-26T21:31:36.076Z,99976.54
2018-05-26T21:34:03.690Z,99984.44
2018-05-26T21:36:31.836Z,99982.78
2018-05-26T21:38:59.434Z,99981.30
2018-05-26T21:41:27.119Z,99957.23
2018-05-26T21:43:54.755Z,99950.50
2018-05-26T21:46:22.387Z,99944.62
2018-05-26T21:48:50.075Z,99947.78
2018-05-26T21:51:17.743Z,99953.20
2018-05-26T21:53:45.400Z,99955.34
2018-05-26T21:56:13.015Z,99954.14
2018-05-26T21:58:40.719Z,99954.09
2018-05-26T22:01:08.301Z,99953.40
2018-05-26T22:03:35.984Z,99945.44
2018-05-26T22:06:03.763Z,99939.77
2018-05-26T22:08:31.320Z,99938.21
2018-05-26T22:10:58.996Z,99939.00
2018-05-26T22:13:27.042Z,99940.52
2018-05-26T22:15:54.746Z,99932.34
2018-05-26T22:18:22.440Z,99929.80
2018-05-26T22:20:50.097Z,99934.08
2018-05-26T22:23:17.706Z,99936.12
2018-05-26T22:25:45.383Z,99929.19
2018-05-26T22:28:13.067Z,99921.05
2018-05-26T22:30:40.663Z,99921.86
2018-05-26T22:33:08.328Z,99928.49
2018-05-26T22:35:36.310Z,99930.92
2018-05-26T22:38:04.078Z,99936.82
2018-05-26T22:40:31.731Z,99934.77
2018-05-26T22:42:59.412Z,99936.87
2018-05-26T22:45:27.050Z,99937.91
2018-05-26T22:47:54.716Z,99932.82
2018-05-26T22:50:22.548Z,99939.03
2018-05-26T22:52:50.192Z,99934.58
2018-05-26T22:55:17.906Z,99931.73
2018-05-26T22:57:45.703Z,99930.00
2018-05-26T23:00:13.477Z,99931.65
2018-05-26T23:02:41.074Z,99931.14
2018-05-26T23:05:08.907Z,99924.09
2018-05-26T23:07:36.549Z,99931.28
2018-05-26T23:10:04.338Z,99931.28
2018-05-26T23:12:31.972Z,99926.36
2018-05-26T23:14:59.612Z,99927.16
2018-05-26T23:17:27.200Z,99916.95
2018-05-26T23:19:55.418Z,99921.20
2018-05-26T23:22:23.160Z,99921.68
2018-05-26T23:24:50.800Z,99922.60
2018-05-26T23:27:18.519Z,99923.30
2018-05-26T23:29:46.126Z,99919.45
2018-05-26T23:32:13.785Z,99914.53
2018-05-26T23:34:41.493Z,99918.36
2018-05-26T23:37:09.114Z,99917.91
2018-05-26T23:39:36.703Z,99917.06
2018-05-26T23:42:04.383Z,99921.38
2018-05-26T23:44:32.212Z,99919.95
2018-05-26T23:46:59.870Z,99916.16
2018-05-26T23:49:27.880Z,99916.52
2018-05-26T23:51:55.579Z,99910.50
2018-05-26T23:54:23.269Z,99905.04
2018-05-26T23:56:50.955Z,99904.34
2018-05-26T23:59:18.557Z,99895.11
